This is the latest recevied weather packets stored in our database for station/object KF7IOR. If no packets are shown the sender has not sent any weather packets the latest 10 day(s).
| Time | Temp. | Humidity | Pressure | Rain* | Wind** | Luminosity | Snow |
|---|---|---|---|---|---|---|---|
| 1777773335 | 23.33° C | 54% | 1010.8 hPa | 0 mm | - | 105 W/m² | - |
| 1777773035 | 23.33° C | 54% | 1010.7 hPa | 0 mm | - | 113 W/m² | - |
| 1777770334 | 23.33° C | 54% | 1010.7 hPa | 0 mm | - | 172 W/m² | - |
| 1777770045 | 23.33° C | 51% | 1010.6 hPa | 0 mm | - | 183 W/m² | - |
| 1777769735 | 23.89° C | 51% | 1010.6 hPa | 0 mm | - | 229 W/m² | - |
| 1777769165 | 24.44° C | 50% | 1010.7 hPa | 0 mm | - | 271 W/m² | - |
| 1777766446 | 22.78° C | 54% | 1010.9 hPa | 0 mm | - | 445 W/m² | - |
| 1777764936 | 22.78° C | 55% | 1011.2 hPa | 0 mm | - | 290 W/m² | - |
| 1777764642 | 22.78° C | 54% | 1011.3 hPa | 0 mm | - | 425 W/m² | - |
| 1777763435 | 21.67° C | 56% | 1011.4 hPa | 0 mm | - | 374 W/m² | - |
| 1777762840 | 22.22° C | 53% | 1011.5 hPa | 0 mm | - | 510 W/m² | - |
| 1777762535 | 22.22° C | 57% | 1011.6 hPa | 0 mm | - | 503 W/m² | - |
| 1777760735 | 21.11° C | 57% | 1012.2 hPa | 0 mm | - | 587 W/m² | - |
| 1777759838 | 20.56° C | 61% | 1012.5 hPa | 0 mm | - | 399 W/m² | - |
| 1777758635 | 20.56° C | 58% | 1012.8 hPa | 0 mm | - | 738 W/m² | - |
| 1777758340 | 20.56° C | 59% | 1012.8 hPa | 0 mm | - | 772 W/m² | - |
| 1777756238 | 19.44° C | 61% | 1013.3 hPa | 0 mm | - | 810 W/m² | - |
| 1777755334 | 18.89° C | 61% | 1013.7 hPa | 0 mm | - | 896 W/m² | - |
| 1777754134 | 17.78° C | 63% | 1013.9 hPa | 0 mm | - | 907 W/m² | - |
| 1777753235 | 17.78° C | 66% | 1014.1 hPa | 0 mm | - | 826 W/m² | - |
| 1777751737 | 17.22° C | 67% | 1014.2 hPa | 0 mm | - | 327 W/m² | - |
| 1777751141 | 16.11° C | 67% | 1014.3 hPa | 0 mm | - | 429 W/m² | - |
| 1777746335 | 13.89° C | 75% | 1015.3 hPa | 0 mm | - | 420 W/m² | - |
| 1777742734 | 12.78° C | 76% | 1015.9 hPa | 0 mm | - | 200 W/m² | - |
| 1777742140 | 12.78° C | 77% | 1015.8 hPa | 0 mm | - | 190 W/m² | - |
* Rain latest hour (hover to see other rain measurements)
** Current wind speed in m/s (hover to see current wind gust speed)